INDIA METEOROLOGICAL DEPARTMENT, R.M.C. NEW DELHI
Dated:21 - 12 - 2014
METARS


Agartala   
VEAT 210330Z 34004KT 1800 BR FEW020 SCT100 18/15 Q1016 NOSIG=
Ahmedabad  
VAAH 210340Z 05006KT 2500 FU NSC 16/08 Q1016 BECMG 4000=
Amritsar   
VIAR 210330Z 00000KT 0150 R34/0650 FG VV/// 07/07 Q1018=
Aurangabad 
SPECI VAAU 210300Z 00000KT 1500 HZ NSC 17/06 Q1017=
Bangalore  
SPECI VOBL 210330Z 09006KT 050V120 6000 SCT008 SCT012 23/20 Q1018 NOSIG=
Baroda     
VABO 210300Z 02005KT 3000 HZ NSC 14/10 Q1015=
Bhaunagar  
VABV 210300Z 32004KT 2000 HZ NSC 14/10 Q1015=
Bhopal     
VABP 210300Z 10005KT 1500 BR NSC 12/08 Q1018 BEC 2000 HZ=
Bhubaneswar
SPECI VEBS 210330Z 36002KT 2000 HZ NSC 19/11 Q1017 NOSIG=
Bhuntar    
VIBR 210300Z 00000KT 6000 SCT035 03/02 Q1019=
Chennai    
VOMM 210340Z 35004KT 3500 BR FEW020 SCT100 25/21 Q1013 NOSIG=
Coimbatore 
SPECI VOCB 210330Z 00000KT 1500 BR FEW010 SCT015 23/19 Q1016 NOSIG=
Colombo    
VCBI 210340Z 04005KT 9999 FEW020CB BKN040 27/22 Q1012 NOSIG=
Delhi      
VIDP 210330Z 27004KT 0700 R28/1500 R29/0800 MIFG FEW100 08/07 Q1019 BECMG VIS 0800 =
Dehradun   
VIDN 210330Z 19003KT 0200 FG SCT080 06/06 Q1018=
Gauhati    
VEGT 210300Z 23002KT 1500 BR FEW020 SCT100 16/14 Q1018 BEC 2000 BR=
Gaya       
SPECI VEGY 210300Z 00000KT 0600 FG BKN100 11/10 Q1018 =
Gaggal     
VIGG 210330Z 26003KT 200M FG 06/05 Q1018=
Goa        
VOGO 210300Z 07010KT 6000 FEW090 SCT220 24/20 Q1012 NOSIG =
Hyderabad  
COR VOHS 210340Z 09006KT 5000 HZ FEW020 SCT200 19/05 Q1018 NOSIG=
Imphal     
VEIM 210300Z 00000KT 2000 BR FEW008 BKN200 12/08 Q1019 BECMG 3000 BR =
Indore     
VAID 210300Z 02005KT 1200 BR NSC 14/09 Q1018=
Jabalpur   
VAJB 210300Z 05002KT 2000 BR SCT200 13/09 Q1019=
Jaipur     
VIJP 210330Z 12003KT 1000 R27/1200N BR FEW100 13/06 Q1019 NOSIG=
Khajuraho  
VAKJ 210300Z 29002KT 0500 FG VV/// 10/10 Q1019=
Kochi      
VOCI 210330Z 09004KT 4000 BR FEW015 27/23 Q1012 NOSIG=
Kolkata    
VECC 210350Z 36007KT 1800 FU NSC 18/13 Q1017 NOSIG=
Kozhikode  
VOCL 210330Z 10004KT 7000 FEW015 26/20 Q1013 NOSIG =
Lucknow    
VILK 210330Z 00000KT 0800 R27/1100 FG VV/// 11/09 Q1019 NOSIG=
Madurai    
VOMD 210330Z 34003KT 4000 BR FEW020 BKN100 26/19 Q1014=
Mumbai     
VABB 210340Z 04005KT 2200 FU NSC 25/11 Q1014 NOSIG=
Nagpur     
VANP 210310Z 33003KT 2000 HZ FEW100 16/07 Q1018 NOSIG=
Patna      
VEPT 210350Z 29004KT 0500 FG SCT100 13/11 Q1018 NOSIG=
Raipur     
SPECI VARP 210300Z 14003KT 1500 HZ SCT100 15/11 Q1015 TEMPO 2000 HZ=
Safdarjung
SPECI VIDD 210300Z 00000KT 0600 FG FEW040 BKN100 08/07 Q1019 NOSIG=
Ranchi     
VERC 210330Z 00000KT 1200 MIFG BKN100 14/08 Q1019 NOSIG=
Trichy     
VOTR 210340Z 32003KT 2500 BR FEW018 BKN100 24/19 Q1014 NOSIG=
Trivandrum 
VOTV 210310Z 36004KT 3500 HZ FEW015 SCT090 27/22 Q1010 BECMG 4000 HZ=
Udaipur    
VAUD 210300Z 00000KT 3000 HZ NSC 07/03 Q1018 NOSIG =
Varanasi   
VIBN 210330Z 00000KT 0800 FG VV/// 12/11 Q1020=
Vizag      
SPECI VOVZ 210300Z 23003KT 4000 HZ NSC 22/13 Q1015 BECMG 4500 HZ =
Male       
VRMM 210300Z 00000KT 9999 FEW016 FEW017CB BKN100 26/25 Q1012 CB N,NE,NW TEMPO 3000 SHRA=
Gan        
VRMG 210300Z 28008KT 9999 FEW018 FEW019CB SCT120 29/25 Q1011 CB W=
Kathmandu   
VNKT 210350Z 00000KT 6000 FEW020 10/04 Q1022 NOSIG=
Dhaka      
VGHS 210250Z NIL=
Colombo     
VCBI 210340Z 04005KT 9999 FEW020CB BKN040 27/22 Q1012 NOSIG=
Karachi     
OPKC 210325Z 06004KT 2500 HZ NSC 12/02 Q1017 NOSIG=
Lahore      
OPLA 210325Z 14003KT 0050 FG VV/// 05/05 Q1018/A30.06=
Leh        
VILH 210330Z VRB01KT 6000 FEW040 SCT060 BKN090 M05/M20 Q1022 NOSIG=
Thoise     
VITX 210330Z VRB01KT 6000 FEW040 SCT070 BKN150 M03/M11 Q1024 NOSIG=
Sri Nagar  
VISR 210330Z VRB01KT 1800 HZ FEW030 BKN090 M01/M06 Q1021 NOSIG=
Jammu      
VIJU 210330Z 36003KT 0800 FG SCT020 BKN100 08/07 Q1017 BECMG1500M TILL1100H=
Jodhpur    
VIJO 210330Z 06003KT 4500 HZ 12/05 Q1018 NOSIG=
Bhuj-Rudra 
VABJ 210330Z 22003KT 3000 BR 12/08 Q1017 TEMPO5000M=
Gorakhpur  
VEGK 210330Z 25003KT 1800 BR 11/08 Q1019 BECMG2000=
Allahabad  
VIAL 210330Z 32003KT 1500 BR 11/08 BKN008 11/08 Q1020 BECMG2000=
Agra       
VIAG 210330Z 01004KT 0000 FG 06/06 Q1019 BECMG0500=
Siliguri   
VEBD 210330Z VRB01KT 2000 HZ FEW030 BKN250 19/14 Q1018 BECMG3000=
Gwalior    
VIGR 210330Z VRB01KT 1000 BR 09/10 Q1020 BECMG15000M=
Pune       
VAPO 210330Z VRB01KT 3000 HZ BKN250 18/12 Q1018 BECMG5000HZ
Chandigarh 
VICG 210330Z VRB02KT 0600 FG 07/07 Q1019 NOSIG=
Jamnagar   
VAJM 210330Z 07005KT 4000 HZ 17/08 Q1016 BECMG5000M=